Flight Track Log - Related Links

Times and Time Zones

All times are in EDT time to prevent confusion due to time zone crossing. See the N77VE flight status page for this flight to view local times or setup timezone preferences in your user account.

Time Position Orientation Groundspeed Altitude Reporting Facility
EDT Latitude Longitude Course Direction KTS MPH feet Rate Location/Type
Mon 04:43:55 PM 39.2000 -77.1667 38° Northeast 111 128 1,700  Level Potomac TRACON
Mon 04:44:55 PM 39.2167 -77.1500 38° Northeast 105 121 2,300 500 Climbing Potomac TRACON
Mon 04:45:55 PM 39.2500 -77.1667 339° North 116 133 2,700 550 Climbing Potomac TRACON
Mon 04:46:55 PM 39.2667 -77.2000 303° West 114 131 3,400 563 Climbing Potomac TRACON
Mon 04:48:35 PM 39.3106 -77.2467 321° Northwest 113 130 4,200 261 Climbing Washington Center
Mon 04:49:36 PM 39.3372 -77.2794 316° Northwest 123 142 4,100 -99 Descending Washington Center
Mon 04:50:36 PM 39.3658 -77.3122 318° Northwest 128 147 4,000 50 Descending Washington Center
Mon 04:51:35 PM 39.3925 -77.3453 316° Northwest 128 147 4,200 50 Climbing Washington Center
Mon 04:52:36 PM 39.4211 -77.3781 318° Northwest 128 147 4,100 -99 Descending Washington Center
Mon 04:53:36 PM 39.4500 -77.4111 319° Northwest 133 153 4,000 -50 Descending Washington Center
Mon 04:54:36 PM 39.4764 -77.4439 316° Northwest 133 153 4,000 51 Level Washington Center
Mon 04:55:34 PM 39.5072 -77.4744 323° Northwest 133 153 4,100 50 Climbing Washington Center
Mon 04:56:35 PM 39.5317 -77.5100 312° West 133 153 4,100 -50 Level Washington Center
Mon 04:57:35 PM 39.5625 -77.5431 320° Northwest 133 153 4,000 -149 Descending Washington Center
Mon 04:58:36 PM 39.5889 -77.5761 316° Northwest 133 153 3,800 -403 Descending Washington Center
Mon 04:59:34 PM 39.6156 -77.6119 314° West 133 153 3,200 -458 Descending Washington Center
Mon 05:00:34 PM 39.6419 -77.6422 319° Northwest 133 153 2,900 -198 Descending Washington Center
Mon 05:01:35 PM 39.6686 -77.6672 324° Northwest 133 153 2,800 -397 Descending Washington Center
Mon 05:02:35 PM 39.6975 -77.6842 336° Northwest 121 139 2,100 -942 Descending Washington Center
Mon 05:03:36 PM 39.7097 -77.7089 303° West 104 120 900 -1,180 Descending Washington Center

Login

Don't have an account? Register now (free) for customized features, flight alerts, and more!